sensor_id;sensor_type;location;lat;lon;timestamp;temperature;humidity
20171;DHT22;10245;51.344;6.620;2022-08-16T00:02:25;23.60;74.10
20171;DHT22;10245;51.344;6.620;2022-08-16T00:04:49;23.80;73.40
20171;DHT22;10245;51.344;6.620;2022-08-16T00:07:13;23.60;75.60
20171;DHT22;10245;51.344;6.620;2022-08-16T00:09:37;23.60;75.30
20171;DHT22;10245;51.344;6.620;2022-08-16T00:12:03;23.70;73.60
20171;DHT22;10245;51.344;6.620;2022-08-16T00:14:30;23.70;74.10
20171;DHT22;10245;51.344;6.620;2022-08-16T00:16:59;23.60;76.10
20171;DHT22;10245;51.344;6.620;2022-08-16T00:19:40;23.60;76.20
20171;DHT22;10245;51.344;6.620;2022-08-16T00:22:04;23.60;76.30
20171;DHT22;10245;51.344;6.620;2022-08-16T00:24:36;23.50;76.30
20171;DHT22;10245;51.344;6.620;2022-08-16T00:27:00;23.50;76.30
20171;DHT22;10245;51.344;6.620;2022-08-16T00:29:24;23.70;74.40
20171;DHT22;10245;51.344;6.620;2022-08-16T00:31:51;23.60;75.90
20171;DHT22;10245;51.344;6.620;2022-08-16T00:34:28;23.70;75.10
20171;DHT22;10245;51.344;6.620;2022-08-16T00:37:06;23.60;74.30
20171;DHT22;10245;51.344;6.620;2022-08-16T00:39:30;23.70;74.70
20171;DHT22;10245;51.344;6.620;2022-08-16T00:41:53;23.70;74.60
20171;DHT22;10245;51.344;6.620;2022-08-16T00:44:19;23.70;75.40
20171;DHT22;10245;51.344;6.620;2022-08-16T00:46:56;23.80;74.60
20171;DHT22;10245;51.344;6.620;2022-08-16T00:49:28;23.70;74.80
20171;DHT22;10245;51.344;6.620;2022-08-16T00:52:05;23.70;74.60
20171;DHT22;10245;51.344;6.620;2022-08-16T00:54:49;23.60;75.20
20171;DHT22;10245;51.344;6.620;2022-08-16T00:57:13;23.70;75.30
20171;DHT22;10245;51.344;6.620;2022-08-16T00:59:37;23.70;74.60
20171;DHT22;10245;51.344;6.620;2022-08-16T01:02:20;23.70;74.80
20171;DHT22;10245;51.344;6.620;2022-08-16T01:04:55;23.70;75.50
20171;DHT22;10245;51.344;6.620;2022-08-16T01:07:33;23.70;75.50
20171;DHT22;10245;51.344;6.620;2022-08-16T01:10:14;23.70;75.10
20171;DHT22;10245;51.344;6.620;2022-08-16T01:12:38;23.80;74.60
20171;DHT22;10245;51.344;6.620;2022-08-16T01:15:06;23.70;75.00
20171;DHT22;10245;51.344;6.620;2022-08-16T01:17:32;23.80;74.90
20171;DHT22;10245;51.344;6.620;2022-08-16T01:20:03;23.70;74.90
20171;DHT22;10245;51.344;6.620;2022-08-16T01:22:50;23.80;75.20
20171;DHT22;10245;51.344;6.620;2022-08-16T01:25:22;23.80;74.50
20171;DHT22;10245;51.344;6.620;2022-08-16T01:27:57;23.80;74.40
20171;DHT22;10245;51.344;6.620;2022-08-16T01:30:26;23.70;74.60
20171;DHT22;10245;51.344;6.620;2022-08-16T01:32:53;23.80;74.60
20171;DHT22;10245;51.344;6.620;2022-08-16T01:35:39;23.80;74.20
20171;DHT22;10245;51.344;6.620;2022-08-16T01:38:16;23.70;74.20
20171;DHT22;10245;51.344;6.620;2022-08-16T01:40:45;23.70;74.50
20171;DHT22;10245;51.344;6.620;2022-08-16T01:43:10;23.60;76.50
20171;DHT22;10245;51.344;6.620;2022-08-16T01:45:36;23.60;76.40
20171;DHT22;10245;51.344;6.620;2022-08-16T01:48:03;23.60;76.70
20171;DHT22;10245;51.344;6.620;2022-08-16T01:50:43;23.70;74.80
20171;DHT22;10245;51.344;6.620;2022-08-16T01:53:28;23.60;76.70
20171;DHT22;10245;51.344;6.620;2022-08-16T01:56:12;23.50;76.80
20171;DHT22;10245;51.344;6.620;2022-08-16T01:58:48;23.50;76.90
20171;DHT22;10245;51.344;6.620;2022-08-16T02:01:12;23.40;77.00
20171;DHT22;10245;51.344;6.620;2022-08-16T02:03:38;23.40;77.00
20171;DHT22;10245;51.344;6.620;2022-08-16T02:06:03;23.40;77.10
20171;DHT22;10245;51.344;6.620;2022-08-16T02:08:29;23.40;77.10
20171;DHT22;10245;51.344;6.620;2022-08-16T02:10:55;23.40;76.70
20171;DHT22;10245;51.344;6.620;2022-08-16T02:13:22;23.40;76.80
20171;DHT22;10245;51.344;6.620;2022-08-16T02:15:53;23.30;77.00
20171;DHT22;10245;51.344;6.620;2022-08-16T02:18:17;23.40;77.40
20171;DHT22;10245;51.344;6.620;2022-08-16T02:20:47;23.30;77.10
20171;DHT22;10245;51.344;6.620;2022-08-16T02:23:15;23.20;77.20
20171;DHT22;10245;51.344;6.620;2022-08-16T02:25:39;23.20;77.40
20171;DHT22;10245;51.344;6.620;2022-08-16T02:28:13;23.10;77.70
20171;DHT22;10245;51.344;6.620;2022-08-16T02:30:41;23.00;77.70
20171;DHT22;10245;51.344;6.620;2022-08-16T02:33:12;23.20;77.00
20171;DHT22;10245;51.344;6.620;2022-08-16T02:35:37;23.10;77.20
20171;DHT22;10245;51.344;6.620;2022-08-16T02:38:21;23.10;77.40
20171;DHT22;10245;51.344;6.620;2022-08-16T02:40:45;23.00;77.30
20171;DHT22;10245;51.344;6.620;2022-08-16T02:43:09;23.00;77.70
20171;DHT22;10245;51.344;6.620;2022-08-16T02:45:34;22.90;77.10
20171;DHT22;10245;51.344;6.620;2022-08-16T02:47:59;22.90;77.60
20171;DHT22;10245;51.344;6.620;2022-08-16T02:50:43;23.10;77.50
20171;DHT22;10245;51.344;6.620;2022-08-16T02:53:16;22.90;78.00
20171;DHT22;10245;51.344;6.620;2022-08-16T02:55:44;22.80;77.40
20171;DHT22;10245;51.344;6.620;2022-08-16T02:58:11;22.70;77.60
20171;DHT22;10245;51.344;6.620;2022-08-16T03:00:35;22.70;78.00
20171;DHT22;10245;51.344;6.620;2022-08-16T03:03:08;22.70;77.90
20171;DHT22;10245;51.344;6.620;2022-08-16T03:05:36;22.60;78.10
20171;DHT22;10245;51.344;6.620;2022-08-16T03:08:03;22.70;77.90
20171;DHT22;10245;51.344;6.620;2022-08-16T03:10:47;22.70;78.30
20171;DHT22;10245;51.344;6.620;2022-08-16T03:13:11;22.70;78.20
20171;DHT22;10245;51.344;6.620;2022-08-16T03:15:36;22.50;78.20
20171;DHT22;10245;51.344;6.620;2022-08-16T03:18:00;22.60;78.40
20171;DHT22;10245;51.344;6.620;2022-08-16T03:20:35;22.60;78.30
20171;DHT22;10245;51.344;6.620;2022-08-16T03:23:00;22.50;78.30
20171;DHT22;10245;51.344;6.620;2022-08-16T03:25:26;22.50;79.00
20171;DHT22;10245;51.344;6.620;2022-08-16T03:28:06;22.40;79.60
20171;DHT22;10245;51.344;6.620;2022-08-16T03:30:34;22.30;79.70
20171;DHT22;10245;51.344;6.620;2022-08-16T03:33:01;22.30;79.80
20171;DHT22;10245;51.344;6.620;2022-08-16T03:35:39;22.30;79.70
20171;DHT22;10245;51.344;6.620;2022-08-16T03:38:15;22.40;79.40
20171;DHT22;10245;51.344;6.620;2022-08-16T03:40:59;22.30;79.70
20171;DHT22;10245;51.344;6.620;2022-08-16T03:43:27;22.20;80.10
20171;DHT22;10245;51.344;6.620;2022-08-16T03:46:13;22.20;79.60
20171;DHT22;10245;51.344;6.620;2022-08-16T03:48:56;22.10;79.90
20171;DHT22;10245;51.344;6.620;2022-08-16T03:51:22;22.20;79.90
20171;DHT22;10245;51.344;6.620;2022-08-16T03:53:52;22.00;80.20
20171;DHT22;10245;51.344;6.620;2022-08-16T03:56:25;22.10;80.30
20171;DHT22;10245;51.344;6.620;2022-08-16T03:58:52;22.10;80.30
20171;DHT22;10245;51.344;6.620;2022-08-16T04:01:23;22.10;80.30
20171;DHT22;10245;51.344;6.620;2022-08-16T04:03:52;22.20;80.00
20171;DHT22;10245;51.344;6.620;2022-08-16T04:06:16;22.10;80.00
20171;DHT22;10245;51.344;6.620;2022-08-16T04:08:42;22.00;80.60
20171;DHT22;10245;51.344;6.620;2022-08-16T04:11:06;22.00;80.60
20171;DHT22;10245;51.344;6.620;2022-08-16T04:13:31;22.10;80.30
20171;DHT22;10245;51.344;6.620;2022-08-16T04:16:16;22.10;80.50
20171;DHT22;10245;51.344;6.620;2022-08-16T04:18:57;22.10;80.10
20171;DHT22;10245;51.344;6.620;2022-08-16T04:21:24;22.00;80.30
20171;DHT22;10245;51.344;6.620;2022-08-16T04:23:52;22.00;80.40
20171;DHT22;10245;51.344;6.620;2022-08-16T04:26:16;22.00;80.40
20171;DHT22;10245;51.344;6.620;2022-08-16T04:28:41;22.00;80.80
20171;DHT22;10245;51.344;6.620;2022-08-16T04:31:24;22.00;80.70
20171;DHT22;10245;51.344;6.620;2022-08-16T04:33:52;22.00;81.10
20171;DHT22;10245;51.344;6.620;2022-08-16T04:36:20;22.00;81.00
20171;DHT22;10245;51.344;6.620;2022-08-16T04:38:44;22.00;81.10
20171;DHT22;10245;51.344;6.620;2022-08-16T04:41:12;21.90;81.00
20171;DHT22;10245;51.344;6.620;2022-08-16T04:43:39;21.90;81.10
20171;DHT22;10245;51.344;6.620;2022-08-16T04:46:06;21.90;81.00
20171;DHT22;10245;51.344;6.620;2022-08-16T04:48:51;21.90;80.90
20171;DHT22;10245;51.344;6.620;2022-08-16T04:51:16;21.90;80.80
20171;DHT22;10245;51.344;6.620;2022-08-16T04:53:43;22.00;81.10
20171;DHT22;10245;51.344;6.620;2022-08-16T04:56:08;21.90;81.00
20171;DHT22;10245;51.344;6.620;2022-08-16T04:58:35;22.00;80.60
20171;DHT22;10245;51.344;6.620;2022-08-16T05:01:06;22.00;81.60
20171;DHT22;10245;51.344;6.620;2022-08-16T05:03:30;21.90;81.60
20171;DHT22;10245;51.344;6.620;2022-08-16T05:05:54;22.00;81.30
20171;DHT22;10245;51.344;6.620;2022-08-16T05:08:28;22.00;81.70
20171;DHT22;10245;51.344;6.620;2022-08-16T05:11:03;21.90;81.60
20171;DHT22;10245;51.344;6.620;2022-08-16T05:13:30;21.90;81.40
20171;DHT22;10245;51.344;6.620;2022-08-16T05:16:04;22.00;81.90
20171;DHT22;10245;51.344;6.620;2022-08-16T05:18:37;22.00;81.40
20171;DHT22;10245;51.344;6.620;2022-08-16T05:21:04;22.00;81.50
20171;DHT22;10245;51.344;6.620;2022-08-16T05:23:35;22.00;81.80
20171;DHT22;10245;51.344;6.620;2022-08-16T05:25:59;22.00;82.30
20171;DHT22;10245;51.344;6.620;2022-08-16T05:28:25;22.20;81.30
20171;DHT22;10245;51.344;6.620;2022-08-16T05:30:59;22.40;81.10
20171;DHT22;10245;51.344;6.620;2022-08-16T05:33:30;22.50;81.90
20171;DHT22;10245;51.344;6.620;2022-08-16T05:35:55;22.50;81.00
20171;DHT22;10245;51.344;6.620;2022-08-16T05:38:26;22.60;80.90
20171;DHT22;10245;51.344;6.620;2022-08-16T05:41:03;22.70;80.60
20171;DHT22;10245;51.344;6.620;2022-08-16T05:43:32;22.90;80.20
20171;DHT22;10245;51.344;6.620;2022-08-16T05:46:22;23.10;80.00
20171;DHT22;10245;51.344;6.620;2022-08-16T05:49:07;23.20;80.00
20171;DHT22;10245;51.344;6.620;2022-08-16T05:51:35;23.30;79.50
20171;DHT22;10245;51.344;6.620;2022-08-16T05:54:02;23.30;79.20
20171;DHT22;10245;51.344;6.620;2022-08-16T05:56:26;23.40;79.10
20171;DHT22;10245;51.344;6.620;2022-08-16T05:58:49;23.80;76.70
20171;DHT22;10245;51.344;6.620;2022-08-16T06:01:14;23.90;76.10
20171;DHT22;10245;51.344;6.620;2022-08-16T06:03:42;24.00;76.30
20171;DHT22;10245;51.344;6.620;2022-08-16T06:06:33;24.10;76.40
20171;DHT22;10245;51.344;6.620;2022-08-16T06:09:02;24.10;75.50
20171;DHT22;10245;51.344;6.620;2022-08-16T06:11:30;24.10;75.50
20171;DHT22;10245;51.344;6.620;2022-08-16T06:13:55;24.30;75.80
20171;DHT22;10245;51.344;6.620;2022-08-16T06:16:29;24.30;75.70
20171;DHT22;10245;51.344;6.620;2022-08-16T06:18:53;24.20;75.40
20171;DHT22;10245;51.344;6.620;2022-08-16T06:21:18;24.50;74.90
20171;DHT22;10245;51.344;6.620;2022-08-16T06:23:51;24.30;75.80
20171;DHT22;10245;51.344;6.620;2022-08-16T06:26:17;24.30;75.40
20171;DHT22;10245;51.344;6.620;2022-08-16T06:28:41;24.50;74.80
20171;DHT22;10245;51.344;6.620;2022-08-16T06:31:15;24.50;74.50
20171;DHT22;10245;51.344;6.620;2022-08-16T06:33:45;24.50;74.80
20171;DHT22;10245;51.344;6.620;2022-08-16T06:36:14;24.50;74.80
20171;DHT22;10245;51.344;6.620;2022-08-16T06:39:15;24.70;74.30
20171;DHT22;10245;51.344;6.620;2022-08-16T06:41:59;24.70;74.20
20171;DHT22;10245;51.344;6.620;2022-08-16T06:44:58;24.80;73.50
20171;DHT22;10245;51.344;6.620;2022-08-16T06:47:33;24.60;74.20
20171;DHT22;10245;51.344;6.620;2022-08-16T06:50:16;24.90;74.00
20171;DHT22;10245;51.344;6.620;2022-08-16T06:52:52;24.80;74.00
20171;DHT22;10245;51.344;6.620;2022-08-16T06:55:24;24.80;74.20
20171;DHT22;10245;51.344;6.620;2022-08-16T06:57:57;24.80;74.00
20171;DHT22;10245;51.344;6.620;2022-08-16T07:00:23;25.00;73.90
20171;DHT22;10245;51.344;6.620;2022-08-16T07:03:00;25.00;73.80
20171;DHT22;10245;51.344;6.620;2022-08-16T07:05:44;25.20;73.30
20171;DHT22;10245;51.344;6.620;2022-08-16T07:08:15;25.30;73.00
20171;DHT22;10245;51.344;6.620;2022-08-16T07:10:42;25.40;72.70
20171;DHT22;10245;51.344;6.620;2022-08-16T07:13:07;25.40;72.40
20171;DHT22;10245;51.344;6.620;2022-08-16T07:15:40;25.20;73.10
20171;DHT22;10245;51.344;6.620;2022-08-16T07:18:17;25.20;73.00
20171;DHT22;10245;51.344;6.620;2022-08-16T07:20:46;24.90;74.30
20171;DHT22;10245;51.344;6.620;2022-08-16T07:23:11;25.10;74.10
20171;DHT22;10245;51.344;6.620;2022-08-16T07:25:44;25.30;73.20
20171;DHT22;10245;51.344;6.620;2022-08-16T07:28:11;25.50;73.00
20171;DHT22;10245;51.344;6.620;2022-08-16T07:30:47;25.80;73.10
20171;DHT22;10245;51.344;6.620;2022-08-16T07:33:29;25.40;72.90
20171;DHT22;10245;51.344;6.620;2022-08-16T07:36:14;25.70;72.50
20171;DHT22;10245;51.344;6.620;2022-08-16T07:38:44;25.80;72.40
20171;DHT22;10245;51.344;6.620;2022-08-16T07:41:12;25.70;73.00
20171;DHT22;10245;51.344;6.620;2022-08-16T07:43:40;25.80;73.10
20171;DHT22;10245;51.344;6.620;2022-08-16T07:46:07;26.00;72.80
20171;DHT22;10245;51.344;6.620;2022-08-16T07:48:52;26.00;73.30
20171;DHT22;10245;51.344;6.620;2022-08-16T07:51:24;26.00;71.60
20171;DHT22;10245;51.344;6.620;2022-08-16T07:53:51;26.00;72.10
20171;DHT22;10245;51.344;6.620;2022-08-16T07:56:32;26.10;72.60
20171;DHT22;10245;51.344;6.620;2022-08-16T07:58:58;26.30;71.00
20171;DHT22;10245;51.344;6.620;2022-08-16T08:01:24;26.20;71.70
20171;DHT22;10245;51.344;6.620;2022-08-16T08:03:52;26.20;70.90
20171;DHT22;10245;51.344;6.620;2022-08-16T08:06:23;26.00;71.20
20171;DHT22;10245;51.344;6.620;2022-08-16T08:08:51;26.10;71.30
20171;DHT22;10245;51.344;6.620;2022-08-16T08:11:20;26.20;71.10
20171;DHT22;10245;51.344;6.620;2022-08-16T08:13:51;26.40;69.00
20171;DHT22;10245;51.344;6.620;2022-08-16T08:16:18;26.60;68.50
20171;DHT22;10245;51.344;6.620;2022-08-16T08:18:42;26.50;68.80
20171;DHT22;10245;51.344;6.620;2022-08-16T08:21:11;26.50;67.50
20171;DHT22;10245;51.344;6.620;2022-08-16T08:23:34;26.70;68.60
20171;DHT22;10245;51.344;6.620;2022-08-16T08:26:04;27.00;69.10
20171;DHT22;10245;51.344;6.620;2022-08-16T08:28:39;27.10;67.00
20171;DHT22;10245;51.344;6.620;2022-08-16T08:31:05;26.70;68.30
20171;DHT22;10245;51.344;6.620;2022-08-16T08:33:31;26.60;68.30
20171;DHT22;10245;51.344;6.620;2022-08-16T08:35:57;26.40;68.30
20171;DHT22;10245;51.344;6.620;2022-08-16T08:38:22;26.40;68.70
20171;DHT22;10245;51.344;6.620;2022-08-16T08:41:06;26.30;71.60
20171;DHT22;10245;51.344;6.620;2022-08-16T08:43:34;26.40;69.40
20171;DHT22;10245;51.344;6.620;2022-08-16T08:46:07;26.50;69.00
20171;DHT22;10245;51.344;6.620;2022-08-16T08:48:42;27.00;68.00
20171;DHT22;10245;51.344;6.620;2022-08-16T08:51:27;27.20;67.40
20171;DHT22;10245;51.344;6.620;2022-08-16T08:53:58;27.40;66.40
20171;DHT22;10245;51.344;6.620;2022-08-16T08:56:27;27.40;67.00
20171;DHT22;10245;51.344;6.620;2022-08-16T08:59:31;27.30;66.70
20171;DHT22;10245;51.344;6.620;2022-08-16T09:02:05;27.40;67.20
20171;DHT22;10245;51.344;6.620;2022-08-16T09:04:46;27.50;66.00
20171;DHT22;10245;51.344;6.620;2022-08-16T09:07:13;27.50;67.00
20171;DHT22;10245;51.344;6.620;2022-08-16T09:09:41;27.40;66.20
20171;DHT22;10245;51.344;6.620;2022-08-16T09:12:08;27.40;65.90
20171;DHT22;10245;51.344;6.620;2022-08-16T09:14:57;27.60;65.30
20171;DHT22;10245;51.344;6.620;2022-08-16T09:17:25;27.70;64.70
20171;DHT22;10245;51.344;6.620;2022-08-16T09:20:11;27.70;65.80
20171;DHT22;10245;51.344;6.620;2022-08-16T09:22:38;27.80;64.40
20171;DHT22;10245;51.344;6.620;2022-08-16T09:25:05;27.80;64.00
20171;DHT22;10245;51.344;6.620;2022-08-16T09:27:33;27.90;64.10
20171;DHT22;10245;51.344;6.620;2022-08-16T09:30:17;28.00;62.80
20171;DHT22;10245;51.344;6.620;2022-08-16T09:32:57;28.10;64.70
20171;DHT22;10245;51.344;6.620;2022-08-16T09:35:21;28.20;62.70
20171;DHT22;10245;51.344;6.620;2022-08-16T09:37:44;28.30;62.00
20171;DHT22;10245;51.344;6.620;2022-08-16T09:40:22;28.30;62.80
20171;DHT22;10245;51.344;6.620;2022-08-16T09:43:04;28.40;62.50
20171;DHT22;10245;51.344;6.620;2022-08-16T09:45:27;28.50;61.40
20171;DHT22;10245;51.344;6.620;2022-08-16T09:47:58;28.40;62.00
20171;DHT22;10245;51.344;6.620;2022-08-16T09:50:23;28.30;62.00
20171;DHT22;10245;51.344;6.620;2022-08-16T09:53:01;28.20;61.90
20171;DHT22;10245;51.344;6.620;2022-08-16T09:55:27;28.10;62.60
20171;DHT22;10245;51.344;6.620;2022-08-16T09:57:52;28.30;60.90
20171;DHT22;10245;51.344;6.620;2022-08-16T10:00:16;28.50;63.00
20171;DHT22;10245;51.344;6.620;2022-08-16T10:03:01;28.60;60.70
20171;DHT22;10245;51.344;6.620;2022-08-16T10:05:25;28.70;60.70
20171;DHT22;10245;51.344;6.620;2022-08-16T10:07:48;28.70;60.30
20171;DHT22;10245;51.344;6.620;2022-08-16T10:10:18;28.80;60.80
20171;DHT22;10245;51.344;6.620;2022-08-16T10:12:52;28.60;60.80
20171;DHT22;10245;51.344;6.620;2022-08-16T10:15:35;28.60;61.00
20171;DHT22;10245;51.344;6.620;2022-08-16T10:18:05;28.80;60.30
20171;DHT22;10245;51.344;6.620;2022-08-16T10:20:50;28.70;60.00
20171;DHT22;10245;51.344;6.620;2022-08-16T10:23:18;28.50;60.50
20171;DHT22;10245;51.344;6.620;2022-08-16T10:25:44;28.70;60.40
20171;DHT22;10245;51.344;6.620;2022-08-16T10:28:28;28.80;60.50
20171;DHT22;10245;51.344;6.620;2022-08-16T10:31:02;28.90;59.10
20171;DHT22;10245;51.344;6.620;2022-08-16T10:33:29;29.00;58.90
20171;DHT22;10245;51.344;6.620;2022-08-16T10:35:55;29.00;58.10
20171;DHT22;10245;51.344;6.620;2022-08-16T10:38:24;29.00;60.50
20171;DHT22;10245;51.344;6.620;2022-08-16T10:40:49;29.20;57.10
20171;DHT22;10245;51.344;6.620;2022-08-16T10:43:16;29.10;57.70
20171;DHT22;10245;51.344;6.620;2022-08-16T10:45:41;29.20;56.30
20171;DHT22;10245;51.344;6.620;2022-08-16T10:48:21;29.30;57.30
20171;DHT22;10245;51.344;6.620;2022-08-16T10:50:51;29.40;53.90
20171;DHT22;10245;51.344;6.620;2022-08-16T10:53:19;29.20;53.00
20171;DHT22;10245;51.344;6.620;2022-08-16T10:55:46;29.20;55.10
20171;DHT22;10245;51.344;6.620;2022-08-16T10:58:20;29.40;56.10
20171;DHT22;10245;51.344;6.620;2022-08-16T11:00:59;29.40;55.10
20171;DHT22;10245;51.344;6.620;2022-08-16T11:03:55;29.60;54.80
20171;DHT22;10245;51.344;6.620;2022-08-16T11:06:52;29.60;53.70
20171;DHT22;10245;51.344;6.620;2022-08-16T11:09:44;29.90;54.00
20171;DHT22;10245;51.344;6.620;2022-08-16T11:12:10;29.80;54.50
20171;DHT22;10245;51.344;6.620;2022-08-16T11:14:36;29.60;51.10
20171;DHT22;10245;51.344;6.620;2022-08-16T11:17:21;29.50;53.00
20171;DHT22;10245;51.344;6.620;2022-08-16T11:19:46;29.80;54.00
20171;DHT22;10245;51.344;6.620;2022-08-16T11:22:32;30.00;53.30
20171;DHT22;10245;51.344;6.620;2022-08-16T11:25:11;29.60;53.40
20171;DHT22;10245;51.344;6.620;2022-08-16T11:27:58;28.90;54.60
20171;DHT22;10245;51.344;6.620;2022-08-16T11:30:25;28.70;55.50
20171;DHT22;10245;51.344;6.620;2022-08-16T11:33:00;29.10;53.40
20171;DHT22;10245;51.344;6.620;2022-08-16T11:35:28;29.20;51.10
20171;DHT22;10245;51.344;6.620;2022-08-16T11:38:18;29.30;52.70
20171;DHT22;10245;51.344;6.620;2022-08-16T11:41:04;29.90;52.80
20171;DHT22;10245;51.344;6.620;2022-08-16T11:43:31;30.40;51.40
20171;DHT22;10245;51.344;6.620;2022-08-16T11:45:59;30.10;50.70
20171;DHT22;10245;51.344;6.620;2022-08-16T11:48:45;29.90;52.50
20171;DHT22;10245;51.344;6.620;2022-08-16T11:51:09;29.50;52.20
20171;DHT22;10245;51.344;6.620;2022-08-16T11:53:34;29.60;50.70
20171;DHT22;10245;51.344;6.620;2022-08-16T11:55:59;29.10;52.00
20171;DHT22;10245;51.344;6.620;2022-08-16T11:58:26;29.10;52.40
20171;DHT22;10245;51.344;6.620;2022-08-16T12:00:56;29.10;52.30
20171;DHT22;10245;51.344;6.620;2022-08-16T12:03:21;29.60;52.30
20171;DHT22;10245;51.344;6.620;2022-08-16T12:05:58;30.00;51.70
20171;DHT22;10245;51.344;6.620;2022-08-16T12:08:23;30.40;49.50
20171;DHT22;10245;51.344;6.620;2022-08-16T12:10:50;30.40;50.40
20171;DHT22;10245;51.344;6.620;2022-08-16T12:13:16;30.40;50.80
20171;DHT22;10245;51.344;6.620;2022-08-16T12:15:42;30.10;49.70
20171;DHT22;10245;51.344;6.620;2022-08-16T12:18:08;29.80;49.90
20171;DHT22;10245;51.344;6.620;2022-08-16T12:20:43;29.70;49.70
20171;DHT22;10245;51.344;6.620;2022-08-16T12:23:08;29.70;50.20
20171;DHT22;10245;51.344;6.620;2022-08-16T12:25:33;29.70;49.30
20171;DHT22;10245;51.344;6.620;2022-08-16T12:28:00;30.00;49.20
20171;DHT22;10245;51.344;6.620;2022-08-16T12:30:26;29.80;49.50
20171;DHT22;10245;51.344;6.620;2022-08-16T12:33:00;29.80;48.90
20171;DHT22;10245;51.344;6.620;2022-08-16T12:35:25;29.80;51.10
20171;DHT22;10245;51.344;6.620;2022-08-16T12:37:51;29.50;51.70
20171;DHT22;10245;51.344;6.620;2022-08-16T12:40:20;29.60;50.00
20171;DHT22;10245;51.344;6.620;2022-08-16T12:42:52;29.60;49.50
20171;DHT22;10245;51.344;6.620;2022-08-16T12:45:23;29.70;49.50
20171;DHT22;10245;51.344;6.620;2022-08-16T12:47:49;29.80;49.80
20171;DHT22;10245;51.344;6.620;2022-08-16T12:50:50;29.70;49.10
20171;DHT22;10245;51.344;6.620;2022-08-16T12:53:18;29.60;50.10
20171;DHT22;10245;51.344;6.620;2022-08-16T12:55:44;29.60;50.30
20171;DHT22;10245;51.344;6.620;2022-08-16T12:58:09;29.60;51.30
20171;DHT22;10245;51.344;6.620;2022-08-16T13:00:56;29.70;50.70
20171;DHT22;10245;51.344;6.620;2022-08-16T13:03:22;29.80;50.70
20171;DHT22;10245;51.344;6.620;2022-08-16T13:05:48;29.80;49.80
20171;DHT22;10245;51.344;6.620;2022-08-16T13:08:18;29.80;50.50
20171;DHT22;10245;51.344;6.620;2022-08-16T13:10:43;29.90;51.80
20171;DHT22;10245;51.344;6.620;2022-08-16T13:13:14;29.80;52.30
20171;DHT22;10245;51.344;6.620;2022-08-16T13:15:45;29.60;50.70
20171;DHT22;10245;51.344;6.620;2022-08-16T13:18:22;29.60;51.10
20171;DHT22;10245;51.344;6.620;2022-08-16T13:20:56;29.70;48.60
20171;DHT22;10245;51.344;6.620;2022-08-16T13:23:20;29.70;48.70
20171;DHT22;10245;51.344;6.620;2022-08-16T13:25:47;29.60;49.60
20171;DHT22;10245;51.344;6.620;2022-08-16T13:28:16;29.50;48.30
20171;DHT22;10245;51.344;6.620;2022-08-16T13:30:42;29.70;49.30
20171;DHT22;10245;51.344;6.620;2022-08-16T13:33:12;30.10;48.50
20171;DHT22;10245;51.344;6.620;2022-08-16T13:35:50;30.30;49.00
20171;DHT22;10245;51.344;6.620;2022-08-16T13:38:24;30.60;47.00
20171;DHT22;10245;51.344;6.620;2022-08-16T13:40:57;30.90;46.90
20171;DHT22;10245;51.344;6.620;2022-08-16T13:43:23;31.00;48.50
20171;DHT22;10245;51.344;6.620;2022-08-16T13:45:49;31.00;46.60
20171;DHT22;10245;51.344;6.620;2022-08-16T13:48:16;30.90;46.60
20171;DHT22;10245;51.344;6.620;2022-08-16T13:50:47;30.90;45.80
20171;DHT22;10245;51.344;6.620;2022-08-16T13:53:13;30.80;46.40
20171;DHT22;10245;51.344;6.620;2022-08-16T13:55:36;31.00;46.40
20171;DHT22;10245;51.344;6.620;2022-08-16T13:58:01;30.70;46.00
20171;DHT22;10245;51.344;6.620;2022-08-16T14:00:46;30.60;45.80
20171;DHT22;10245;51.344;6.620;2022-08-16T14:03:13;30.60;45.10
20171;DHT22;10245;51.344;6.620;2022-08-16T14:05:39;30.60;45.70
20171;DHT22;10245;51.344;6.620;2022-08-16T14:08:05;30.50;47.00
20171;DHT22;10245;51.344;6.620;2022-08-16T14:10:29;30.50;46.60
20171;DHT22;10245;51.344;6.620;2022-08-16T14:12:53;30.30;48.60
20171;DHT22;10245;51.344;6.620;2022-08-16T14:15:17;30.10;47.90
20171;DHT22;10245;51.344;6.620;2022-08-16T14:17:42;30.10;47.50
20171;DHT22;10245;51.344;6.620;2022-08-16T14:20:26;30.10;47.20
20171;DHT22;10245;51.344;6.620;2022-08-16T14:22:49;30.20;47.50
20171;DHT22;10245;51.344;6.620;2022-08-16T14:25:19;30.40;47.50
20171;DHT22;10245;51.344;6.620;2022-08-16T14:27:44;30.40;48.50
20171;DHT22;10245;51.344;6.620;2022-08-16T14:30:16;30.40;47.20
20171;DHT22;10245;51.344;6.620;2022-08-16T14:32:41;30.80;45.90
20171;DHT22;10245;51.344;6.620;2022-08-16T14:35:21;30.80;45.20
20171;DHT22;10245;51.344;6.620;2022-08-16T14:37:58;30.50;43.90
20171;DHT22;10245;51.344;6.620;2022-08-16T14:40:25;30.40;46.40
20171;DHT22;10245;51.344;6.620;2022-08-16T14:42:53;29.90;46.60
20171;DHT22;10245;51.344;6.620;2022-08-16T14:45:20;30.20;45.20
20171;DHT22;10245;51.344;6.620;2022-08-16T14:47:51;30.20;46.50
20171;DHT22;10245;51.344;6.620;2022-08-16T14:50:17;30.40;46.40
20171;DHT22;10245;51.344;6.620;2022-08-16T14:52:48;30.40;45.00
20171;DHT22;10245;51.344;6.620;2022-08-16T14:55:18;30.30;46.60
20171;DHT22;10245;51.344;6.620;2022-08-16T14:57:43;30.30;47.50
20171;DHT22;10245;51.344;6.620;2022-08-16T15:00:10;30.40;44.10
20171;DHT22;10245;51.344;6.620;2022-08-16T15:02:40;30.40;46.90
20171;DHT22;10245;51.344;6.620;2022-08-16T15:05:05;30.50;44.70
20171;DHT22;10245;51.344;6.620;2022-08-16T15:07:30;30.70;44.80
20171;DHT22;10245;51.344;6.620;2022-08-16T15:09:56;30.60;47.30
20171;DHT22;10245;51.344;6.620;2022-08-16T15:12:24;30.60;45.80
20171;DHT22;10245;51.344;6.620;2022-08-16T15:14:56;30.70;46.60
20171;DHT22;10245;51.344;6.620;2022-08-16T15:17:21;30.80;43.60
20171;DHT22;10245;51.344;6.620;2022-08-16T15:19:48;30.80;44.20
20171;DHT22;10245;51.344;6.620;2022-08-16T15:22:15;30.80;44.20
20171;DHT22;10245;51.344;6.620;2022-08-16T15:24:47;30.90;41.80
20171;DHT22;10245;51.344;6.620;2022-08-16T15:27:12;30.90;44.10
20171;DHT22;10245;51.344;6.620;2022-08-16T15:29:36;30.70;44.90
20171;DHT22;10245;51.344;6.620;2022-08-16T15:32:01;30.70;44.00
20171;DHT22;10245;51.344;6.620;2022-08-16T15:34:29;30.70;44.30
20171;DHT22;10245;51.344;6.620;2022-08-16T15:36:53;30.50;44.20
20171;DHT22;10245;51.344;6.620;2022-08-16T15:39:17;30.50;44.50
20171;DHT22;10245;51.344;6.620;2022-08-16T15:42:05;30.50;42.80
20171;DHT22;10245;51.344;6.620;2022-08-16T15:44:32;30.50;44.50
20171;DHT22;10245;51.344;6.620;2022-08-16T15:47:19;30.30;46.50
20171;DHT22;10245;51.344;6.620;2022-08-16T15:49:47;30.30;43.90
20171;DHT22;10245;51.344;6.620;2022-08-16T15:52:20;30.60;44.50
20171;DHT22;10245;51.344;6.620;2022-08-16T15:54:50;30.40;43.90